sensor_id;sensor_type;location;lat;lon;timestamp;pressure;altitude;pressure_sealevel;temperature;humidity
11343;BME280;5726;42.160;24.746;2023-07-13T00:01:16;99562.66;;;30.44;62.03
11343;BME280;5726;42.160;24.746;2023-07-13T00:03:42;99563.44;;;30.44;61.77
11343;BME280;5726;42.160;24.746;2023-07-13T00:06:09;99563.91;;;30.40;62.40
11343;BME280;5726;42.160;24.746;2023-07-13T00:08:34;99558.63;;;30.48;62.33
11343;BME280;5726;42.160;24.746;2023-07-13T00:11:03;99567.56;;;30.33;63.14
11343;BME280;5726;42.160;24.746;2023-07-13T00:13:30;99562.59;;;30.47;62.49
11343;BME280;5726;42.160;24.746;2023-07-13T00:15:57;99561.03;;;30.46;62.31
11343;BME280;5726;42.160;24.746;2023-07-13T00:18:23;99563.91;;;30.40;62.82
11343;BME280;5726;42.160;24.746;2023-07-13T00:20:48;99565.25;;;30.54;62.39
11343;BME280;5726;42.160;24.746;2023-07-13T00:23:14;99565.97;;;30.58;62.21
11343;BME280;5726;42.160;24.746;2023-07-13T00:25:40;99556.50;;;30.30;62.85
11343;BME280;5726;42.160;24.746;2023-07-13T00:28:05;99556.91;;;30.32;63.44
11343;BME280;5726;42.160;24.746;2023-07-13T00:30:31;99560.41;;;30.36;62.99
11343;BME280;5726;42.160;24.746;2023-07-13T00:32:56;99556.16;;;30.28;62.87
11343;BME280;5726;42.160;24.746;2023-07-13T00:35:22;99545.94;;;30.25;63.81
11343;BME280;5726;42.160;24.746;2023-07-13T00:37:48;99539.22;;;30.22;63.12
11343;BME280;5726;42.160;24.746;2023-07-13T00:40:15;99539.97;;;30.26;63.18
11343;BME280;5726;42.160;24.746;2023-07-13T00:42:41;99549.44;;;30.29;63.32
11343;BME280;5726;42.160;24.746;2023-07-13T00:47:41;99534.78;;;30.28;63.27
11343;BME280;5726;42.160;24.746;2023-07-13T00:50:09;99550.56;;;30.31;63.33
11343;BME280;5726;42.160;24.746;2023-07-13T00:52:38;99540.47;;;30.18;63.55
11343;BME280;5726;42.160;24.746;2023-07-13T00:55:05;99534.69;;;30.09;63.37
11343;BME280;5726;42.160;24.746;2023-07-13T00:57:31;99541.72;;;30.17;63.06
11343;BME280;5726;42.160;24.746;2023-07-13T00:59:58;99546.50;;;30.13;62.90
11343;BME280;5726;42.160;24.746;2023-07-13T01:02:32;99537.09;;;30.07;62.94
11343;BME280;5726;42.160;24.746;2023-07-13T01:04:58;99533.44;;;30.13;61.96
11343;BME280;5726;42.160;24.746;2023-07-13T01:07:24;99534.44;;;30.26;62.03
11343;BME280;5726;42.160;24.746;2023-07-13T01:09:50;99526.94;;;29.97;62.70
11343;BME280;5726;42.160;24.746;2023-07-13T01:12:15;99527.38;;;29.95;63.27
11343;BME280;5726;42.160;24.746;2023-07-13T01:14:40;99527.34;;;29.99;62.53
11343;BME280;5726;42.160;24.746;2023-07-13T01:17:09;99531.69;;;29.67;64.19
11343;BME280;5726;42.160;24.746;2023-07-13T01:19:41;99528.22;;;29.59;64.36
11343;BME280;5726;42.160;24.746;2023-07-13T01:22:10;99528.16;;;29.66;64.17
11343;BME280;5726;42.160;24.746;2023-07-13T01:24:38;99532.09;;;29.65;64.66
11343;BME280;5726;42.160;24.746;2023-07-13T01:27:05;99533.63;;;29.70;64.07
11343;BME280;5726;42.160;24.746;2023-07-13T01:29:35;99536.38;;;29.70;64.36
11343;BME280;5726;42.160;24.746;2023-07-13T01:32:06;99535.41;;;29.53;65.08
11343;BME280;5726;42.160;24.746;2023-07-13T01:34:33;99532.09;;;29.65;64.40
11343;BME280;5726;42.160;24.746;2023-07-13T01:36:59;99526.78;;;29.48;65.37
11343;BME280;5726;42.160;24.746;2023-07-13T01:39:24;99533.00;;;29.55;65.12
11343;BME280;5726;42.160;24.746;2023-07-13T01:41:49;99537.69;;;29.58;64.42
11343;BME280;5726;42.160;24.746;2023-07-13T01:44:15;99536.88;;;29.61;64.75
11343;BME280;5726;42.160;24.746;2023-07-13T01:46:40;99533.06;;;29.52;65.03
11343;BME280;5726;42.160;24.746;2023-07-13T01:49:06;99532.47;;;29.67;65.36
11343;BME280;5726;42.160;24.746;2023-07-13T01:51:31;99533.88;;;29.49;65.97
11343;BME280;5726;42.160;24.746;2023-07-13T01:53:57;99535.63;;;29.66;65.48
11343;BME280;5726;42.160;24.746;2023-07-13T01:56:22;99538.53;;;29.55;66.85
11343;BME280;5726;42.160;24.746;2023-07-13T01:58:47;99541.41;;;29.48;67.93
11343;BME280;5726;42.160;24.746;2023-07-13T02:01:13;99539.47;;;29.45;67.51
11343;BME280;5726;42.160;24.746;2023-07-13T02:03:39;99541.47;;;29.42;67.49
11343;BME280;5726;42.160;24.746;2023-07-13T02:06:04;99545.81;;;29.39;67.39
11343;BME280;5726;42.160;24.746;2023-07-13T02:08:31;99553.63;;;29.47;67.39
11343;BME280;5726;42.160;24.746;2023-07-13T02:10:57;99545.75;;;29.46;67.34
11343;BME280;5726;42.160;24.746;2023-07-13T02:13:22;99551.56;;;29.55;67.18
11343;BME280;5726;42.160;24.746;2023-07-13T02:15:50;99560.63;;;29.55;67.36
11343;BME280;5726;42.160;24.746;2023-07-13T02:18:16;99552.94;;;29.40;67.58
11343;BME280;5726;42.160;24.746;2023-07-13T02:20:42;99554.47;;;29.44;67.67
11343;BME280;5726;42.160;24.746;2023-07-13T02:23:08;99554.38;;;29.51;66.74
11343;BME280;5726;42.160;24.746;2023-07-13T02:25:33;99557.56;;;29.50;66.89
11343;BME280;5726;42.160;24.746;2023-07-13T02:27:59;99561.59;;;29.42;67.39
11343;BME280;5726;42.160;24.746;2023-07-13T02:30:24;99562.28;;;29.53;66.70
11343;BME280;5726;42.160;24.746;2023-07-13T02:32:50;99564.44;;;29.68;66.32
11343;BME280;5726;42.160;24.746;2023-07-13T02:35:16;99561.69;;;29.35;67.72
11343;BME280;5726;42.160;24.746;2023-07-13T02:37:41;99565.75;;;29.20;68.27
11343;BME280;5726;42.160;24.746;2023-07-13T02:40:07;99560.25;;;29.17;68.93
11343;BME280;5726;42.160;24.746;2023-07-13T02:42:34;99561.59;;;29.02;69.62
11343;BME280;5726;42.160;24.746;2023-07-13T02:45:00;99574.56;;;29.05;69.81
11343;BME280;5726;42.160;24.746;2023-07-13T02:47:26;99559.88;;;29.15;68.62
11343;BME280;5726;42.160;24.746;2023-07-13T02:49:52;99571.28;;;29.17;68.57
11343;BME280;5726;42.160;24.746;2023-07-13T02:52:17;99570.88;;;29.22;68.59
11343;BME280;5726;42.160;24.746;2023-07-13T02:54:43;99573.69;;;29.15;68.73
11343;BME280;5726;42.160;24.746;2023-07-13T02:57:08;99578.28;;;29.32;67.12
11343;BME280;5726;42.160;24.746;2023-07-13T02:59:34;99573.38;;;29.06;67.55
11343;BME280;5726;42.160;24.746;2023-07-13T03:02:01;99579.41;;;28.94;67.54
11343;BME280;5726;42.160;24.746;2023-07-13T03:04:27;99578.69;;;28.87;68.42
11343;BME280;5726;42.160;24.746;2023-07-13T03:06:52;99581.78;;;28.95;68.11
11343;BME280;5726;42.160;24.746;2023-07-13T03:09:18;99577.88;;;28.90;67.60
11343;BME280;5726;42.160;24.746;2023-07-13T03:11:43;99581.53;;;29.20;66.40
11343;BME280;5726;42.160;24.746;2023-07-13T03:14:08;99587.34;;;28.92;66.51
11343;BME280;5726;42.160;24.746;2023-07-13T03:16:34;99585.88;;;28.74;66.94
11343;BME280;5726;42.160;24.746;2023-07-13T03:18:59;99581.41;;;28.90;66.66
11343;BME280;5726;42.160;24.746;2023-07-13T03:21:25;99569.31;;;28.74;67.00
11343;BME280;5726;42.160;24.746;2023-07-13T03:23:50;99568.41;;;28.91;65.44
11343;BME280;5726;42.160;24.746;2023-07-13T03:26:19;99558.56;;;29.30;64.33
11343;BME280;5726;42.160;24.746;2023-07-13T03:28:44;99571.69;;;29.59;62.25
11343;BME280;5726;42.160;24.746;2023-07-13T03:31:16;99560.63;;;29.59;61.52
11343;BME280;5726;42.160;24.746;2023-07-13T03:33:42;99563.78;;;29.57;60.63
11343;BME280;5726;42.160;24.746;2023-07-13T03:36:14;99566.69;;;29.80;59.74
11343;BME280;5726;42.160;24.746;2023-07-13T03:38:41;99566.78;;;29.70;60.55
11343;BME280;5726;42.160;24.746;2023-07-13T03:41:07;99561.38;;;29.96;59.45
11343;BME280;5726;42.160;24.746;2023-07-13T03:43:32;99566.94;;;30.48;57.90
11343;BME280;5726;42.160;24.746;2023-07-13T03:45:57;99561.53;;;30.64;56.03
11343;BME280;5726;42.160;24.746;2023-07-13T03:48:23;99562.81;;;30.83;55.58
11343;BME280;5726;42.160;24.746;2023-07-13T03:50:48;99564.31;;;30.87;56.06
11343;BME280;5726;42.160;24.746;2023-07-13T03:53:17;99566.63;;;30.92;56.25
11343;BME280;5726;42.160;24.746;2023-07-13T03:55:43;99569.38;;;31.38;54.43
11343;BME280;5726;42.160;24.746;2023-07-13T04:00:56;99578.22;;;32.10;52.48
11343;BME280;5726;42.160;24.746;2023-07-13T04:03:22;99572.94;;;32.15;52.67
11343;BME280;5726;42.160;24.746;2023-07-13T04:05:49;99579.97;;;32.20;52.36
11343;BME280;5726;42.160;24.746;2023-07-13T04:08:14;99580.03;;;32.36;51.99
11343;BME280;5726;42.160;24.746;2023-07-13T04:10:40;99580.72;;;32.39;51.52
11343;BME280;5726;42.160;24.746;2023-07-13T04:13:05;99589.53;;;31.80;54.34
11343;BME280;5726;42.160;24.746;2023-07-13T04:15:31;99583.53;;;31.62;54.84
11343;BME280;5726;42.160;24.746;2023-07-13T04:17:58;99576.91;;;31.98;53.85
11343;BME280;5726;42.160;24.746;2023-07-13T04:20:24;99587.84;;;32.40;53.26
11343;BME280;5726;42.160;24.746;2023-07-13T04:22:50;99591.38;;;32.76;52.39
11343;BME280;5726;42.160;24.746;2023-07-13T04:25:15;99595.34;;;32.43;52.75
11343;BME280;5726;42.160;24.746;2023-07-13T04:27:41;99599.47;;;32.36;53.25
11343;BME280;5726;42.160;24.746;2023-07-13T04:30:07;99599.00;;;32.56;52.48
11343;BME280;5726;42.160;24.746;2023-07-13T04:32:32;99592.91;;;32.93;52.10
11343;BME280;5726;42.160;24.746;2023-07-13T04:34:58;99593.53;;;33.16;51.38
11343;BME280;5726;42.160;24.746;2023-07-13T04:37:26;99599.00;;;33.35;50.04
11343;BME280;5726;42.160;24.746;2023-07-13T04:39:52;99598.78;;;33.58;50.23
11343;BME280;5726;42.160;24.746;2023-07-13T04:42:17;99598.28;;;33.76;49.86
11343;BME280;5726;42.160;24.746;2023-07-13T04:44:50;99599.50;;;34.03;49.58
11343;BME280;5726;42.160;24.746;2023-07-13T04:47:16;99598.22;;;34.32;47.86
11343;BME280;5726;42.160;24.746;2023-07-13T04:49:42;99609.13;;;34.27;48.57
11343;BME280;5726;42.160;24.746;2023-07-13T04:52:08;99607.84;;;34.43;47.36
11343;BME280;5726;42.160;24.746;2023-07-13T04:54:34;99602.66;;;34.17;47.72
11343;BME280;5726;42.160;24.746;2023-07-13T04:57:00;99604.31;;;34.15;48.67
11343;BME280;5726;42.160;24.746;2023-07-13T04:59:26;99604.91;;;34.34;47.73
11343;BME280;5726;42.160;24.746;2023-07-13T05:01:52;99596.75;;;34.28;48.16
11343;BME280;5726;42.160;24.746;2023-07-13T05:04:18;99604.09;;;34.22;47.88
11343;BME280;5726;42.160;24.746;2023-07-13T05:06:44;99606.31;;;33.74;48.91
11343;BME280;5726;42.160;24.746;2023-07-13T05:09:09;99604.88;;;33.37;50.52
11343;BME280;5726;42.160;24.746;2023-07-13T05:11:34;99599.53;;;32.99;51.53
11343;BME280;5726;42.160;24.746;2023-07-13T05:14:00;99612.72;;;33.27;51.56
11343;BME280;5726;42.160;24.746;2023-07-13T05:16:27;99610.31;;;33.73;50.44
11343;BME280;5726;42.160;24.746;2023-07-13T05:18:53;99598.66;;;34.18;48.10
11343;BME280;5726;42.160;24.746;2023-07-13T05:21:19;99605.44;;;33.77;48.07
11343;BME280;5726;42.160;24.746;2023-07-13T05:23:45;99615.53;;;33.71;48.67
11343;BME280;5726;42.160;24.746;2023-07-13T05:26:11;99616.13;;;33.78;47.49
11343;BME280;5726;42.160;24.746;2023-07-13T05:28:37;99615.31;;;34.06;47.15
11343;BME280;5726;42.160;24.746;2023-07-13T05:31:03;99609.91;;;34.39;46.61
11343;BME280;5726;42.160;24.746;2023-07-13T05:33:29;99605.72;;;34.47;45.97
11343;BME280;5726;42.160;24.746;2023-07-13T05:35:55;99608.41;;;34.88;45.71
11343;BME280;5726;42.160;24.746;2023-07-13T05:38:21;99606.38;;;35.01;45.32
11343;BME280;5726;42.160;24.746;2023-07-13T05:40:47;99607.22;;;34.24;47.60
11343;BME280;5726;42.160;24.746;2023-07-13T05:43:13;99615.88;;;34.01;47.88
11343;BME280;5726;42.160;24.746;2023-07-13T05:45:39;99614.91;;;34.20;47.56
11343;BME280;5726;42.160;24.746;2023-07-13T05:48:04;99615.97;;;34.50;47.17
11343;BME280;5726;42.160;24.746;2023-07-13T05:50:30;99610.19;;;34.82;46.65
11343;BME280;5726;42.160;24.746;2023-07-13T05:52:55;99616.63;;;35.16;44.84
11343;BME280;5726;42.160;24.746;2023-07-13T05:55:22;99605.94;;;35.48;43.84
11343;BME280;5726;42.160;24.746;2023-07-13T05:57:47;99609.56;;;35.91;43.16
11343;BME280;5726;42.160;24.746;2023-07-13T06:00:13;99603.53;;;36.44;42.10
11343;BME280;5726;42.160;24.746;2023-07-13T06:02:38;99598.22;;;36.37;41.73
11343;BME280;5726;42.160;24.746;2023-07-13T06:05:04;99605.75;;;36.97;40.55
11343;BME280;5726;42.160;24.746;2023-07-13T06:07:30;99611.13;;;37.40;39.29
11343;BME280;5726;42.160;24.746;2023-07-13T06:09:55;99615.81;;;37.87;37.86
11343;BME280;5726;42.160;24.746;2023-07-13T06:12:21;99628.13;;;37.81;37.95
11343;BME280;5726;42.160;24.746;2023-07-13T06:14:46;99620.34;;;37.67;38.26
11343;BME280;5726;42.160;24.746;2023-07-13T06:17:11;99629.13;;;37.21;38.79
11343;BME280;5726;42.160;24.746;2023-07-13T06:19:37;99615.78;;;36.47;40.57
11343;BME280;5726;42.160;24.746;2023-07-13T06:22:03;99618.53;;;36.68;39.86
11343;BME280;5726;42.160;24.746;2023-07-13T06:24:28;99612.94;;;36.68;39.74
11343;BME280;5726;42.160;24.746;2023-07-13T06:26:54;99607.22;;;37.29;38.91
11343;BME280;5726;42.160;24.746;2023-07-13T06:29:19;99610.38;;;37.93;37.52
11343;BME280;5726;42.160;24.746;2023-07-13T06:31:44;99603.47;;;38.29;36.29
11343;BME280;5726;42.160;24.746;2023-07-13T06:34:10;99607.19;;;38.27;36.21
11343;BME280;5726;42.160;24.746;2023-07-13T06:36:35;99608.78;;;38.19;36.23
11343;BME280;5726;42.160;24.746;2023-07-13T06:39:02;99600.63;;;38.47;35.44
11343;BME280;5726;42.160;24.746;2023-07-13T06:41:28;99600.22;;;38.72;34.66
11343;BME280;5726;42.160;24.746;2023-07-13T06:43:53;99598.59;;;38.80;34.25
11343;BME280;5726;42.160;24.746;2023-07-13T06:46:22;99599.47;;;38.13;34.60
11343;BME280;5726;42.160;24.746;2023-07-13T06:48:49;99596.06;;;37.82;35.31
11343;BME280;5726;42.160;24.746;2023-07-13T06:51:15;99592.66;;;37.51;36.02
11343;BME280;5726;42.160;24.746;2023-07-13T06:53:40;99588.13;;;37.36;36.76
11343;BME280;5726;42.160;24.746;2023-07-13T06:56:06;99594.97;;;37.53;36.45
11343;BME280;5726;42.160;24.746;2023-07-13T06:58:33;99590.06;;;37.00;38.17
11343;BME280;5726;42.160;24.746;2023-07-13T07:00:58;99594.38;;;36.83;38.75
11343;BME280;5726;42.160;24.746;2023-07-13T07:03:24;99603.56;;;36.92;38.87
11343;BME280;5726;42.160;24.746;2023-07-13T07:05:49;99592.78;;;37.21;37.94
11343;BME280;5726;42.160;24.746;2023-07-13T07:08:15;99591.03;;;37.15;38.24
11343;BME280;5726;42.160;24.746;2023-07-13T07:10:40;99608.53;;;36.97;38.85
11343;BME280;5726;42.160;24.746;2023-07-13T07:13:05;99599.63;;;37.20;37.58
11343;BME280;5726;42.160;24.746;2023-07-13T07:15:31;99598.31;;;37.03;37.38
11343;BME280;5726;42.160;24.746;2023-07-13T07:17:57;99596.78;;;37.11;37.39
11343;BME280;5726;42.160;24.746;2023-07-13T07:20:22;99599.38;;;36.97;37.32
11343;BME280;5726;42.160;24.746;2023-07-13T07:22:48;99592.16;;;37.26;36.86
11343;BME280;5726;42.160;24.746;2023-07-13T07:25:13;99581.75;;;37.44;36.45
11343;BME280;5726;42.160;24.746;2023-07-13T07:27:39;99583.47;;;37.51;36.42
11343;BME280;5726;42.160;24.746;2023-07-13T07:30:05;99584.25;;;37.33;36.72
11343;BME280;5726;42.160;24.746;2023-07-13T07:32:31;99588.59;;;37.34;36.61
11343;BME280;5726;42.160;24.746;2023-07-13T07:34:57;99590.31;;;37.50;36.19
11343;BME280;5726;42.160;24.746;2023-07-13T07:37:23;99582.69;;;37.86;35.49
11343;BME280;5726;42.160;24.746;2023-07-13T07:39:48;99577.56;;;37.84;35.56
11343;BME280;5726;42.160;24.746;2023-07-13T07:42:14;99579.88;;;37.86;35.69
11343;BME280;5726;42.160;24.746;2023-07-13T07:44:40;99582.38;;;37.84;35.04
11343;BME280;5726;42.160;24.746;2023-07-13T07:47:07;99581.75;;;37.80;35.48
11343;BME280;5726;42.160;24.746;2023-07-13T07:49:32;99575.84;;;38.05;34.88
11343;BME280;5726;42.160;24.746;2023-07-13T07:51:58;99571.16;;;38.11;35.08
11343;BME280;5726;42.160;24.746;2023-07-13T07:54:23;99571.47;;;37.95;35.47
11343;BME280;5726;42.160;24.746;2023-07-13T07:56:48;99581.91;;;37.94;34.38
11343;BME280;5726;42.160;24.746;2023-07-13T07:59:14;99571.94;;;37.84;34.88
11343;BME280;5726;42.160;24.746;2023-07-13T08:01:39;99572.16;;;37.63;35.46
11343;BME280;5726;42.160;24.746;2023-07-13T08:04:05;99566.06;;;37.38;36.69
11343;BME280;5726;42.160;24.746;2023-07-13T08:06:32;99568.09;;;37.64;35.88
11343;BME280;5726;42.160;24.746;2023-07-13T08:08:59;99574.59;;;37.70;35.80
11343;BME280;5726;42.160;24.746;2023-07-13T08:11:24;99563.09;;;37.86;35.08
11343;BME280;5726;42.160;24.746;2023-07-13T08:13:50;99567.91;;;38.03;35.03
11343;BME280;5726;42.160;24.746;2023-07-13T08:16:15;99556.88;;;37.64;36.16
11343;BME280;5726;42.160;24.746;2023-07-13T08:18:41;99557.19;;;37.57;35.73
11343;BME280;5726;42.160;24.746;2023-07-13T08:21:07;99552.84;;;37.74;35.47
11343;BME280;5726;42.160;24.746;2023-07-13T08:23:34;99555.47;;;37.69;36.10
11343;BME280;5726;42.160;24.746;2023-07-13T08:26:00;99554.97;;;37.88;35.16
11343;BME280;5726;42.160;24.746;2023-07-13T08:28:29;99556.53;;;38.07;34.87
11343;BME280;5726;42.160;24.746;2023-07-13T08:31:00;99551.91;;;37.59;35.38
11343;BME280;5726;42.160;24.746;2023-07-13T08:33:26;99550.03;;;37.21;36.20
11343;BME280;5726;42.160;24.746;2023-07-13T08:35:51;99545.84;;;37.70;35.32
11343;BME280;5726;42.160;24.746;2023-07-13T08:38:18;99555.34;;;37.72;35.01
11343;BME280;5726;42.160;24.746;2023-07-13T08:40:45;99547.81;;;37.96;35.39
11343;BME280;5726;42.160;24.746;2023-07-13T08:43:20;99539.72;;;38.07;35.05
11343;BME280;5726;42.160;24.746;2023-07-13T08:45:57;99542.84;;;37.91;35.19
11343;BME280;5726;42.160;24.746;2023-07-13T08:48:32;99533.84;;;37.87;34.64
11343;BME280;5726;42.160;24.746;2023-07-13T08:51:15;99528.22;;;38.05;34.41
11343;BME280;5726;42.160;24.746;2023-07-13T08:53:48;99526.06;;;37.82;33.59
11343;BME280;5726;42.160;24.746;2023-07-13T08:56:22;99532.72;;;38.43;33.90
11343;BME280;5726;42.160;24.746;2023-07-13T08:58:51;99525.41;;;39.01;32.51
11343;BME280;5726;42.160;24.746;2023-07-13T09:01:47;99525.78;;;39.70;30.47
11343;BME280;5726;42.160;24.746;2023-07-13T09:04:19;99518.63;;;39.97;28.43
11343;BME280;5726;42.160;24.746;2023-07-13T09:07:02;99518.75;;;40.17;28.79
11343;BME280;5726;42.160;24.746;2023-07-13T09:12:02;99517.41;;;39.46;28.30
11343;BME280;5726;42.160;24.746;2023-07-13T09:17:25;99511.28;;;40.14;28.18
11343;BME280;5726;42.160;24.746;2023-07-13T09:22:50;99503.97;;;40.36;28.05
11343;BME280;5726;42.160;24.746;2023-07-13T09:25:34;99508.06;;;40.70;28.97
11343;BME280;5726;42.160;24.746;2023-07-13T09:28:03;99501.66;;;40.89;27.19
11343;BME280;5726;42.160;24.746;2023-07-13T09:31:13;99491.81;;;40.99;26.62
11343;BME280;5726;42.160;24.746;2023-07-13T09:33:39;99482.25;;;41.11;25.48
11343;BME280;5726;42.160;24.746;2023-07-13T09:36:32;99479.50;;;41.16;25.33
11343;BME280;5726;42.160;24.746;2023-07-13T09:39:04;99476.06;;;41.07;26.23
11343;BME280;5726;42.160;24.746;2023-07-13T09:42:07;99463.78;;;40.90;25.74
11343;BME280;5726;42.160;24.746;2023-07-13T09:44:43;99467.34;;;40.65;26.51
11343;BME280;5726;42.160;24.746;2023-07-13T09:47:23;99458.94;;;40.71;26.14
11343;BME280;5726;42.160;24.746;2023-07-13T09:50:15;99452.03;;;40.91;26.03
11343;BME280;5726;42.160;24.746;2023-07-13T09:52:46;99447.03;;;40.95;25.41
11343;BME280;5726;42.160;24.746;2023-07-13T09:55:32;99446.97;;;41.35;24.70
11343;BME280;5726;42.160;24.746;2023-07-13T09:58:03;99447.78;;;41.66;24.79
11343;BME280;5726;42.160;24.746;2023-07-13T10:00:31;99441.09;;;41.64;24.24
11343;BME280;5726;42.160;24.746;2023-07-13T10:03:05;99442.69;;;41.39;24.05
11343;BME280;5726;42.160;24.746;2023-07-13T10:05:42;99424.84;;;40.83;24.77
11343;BME280;5726;42.160;24.746;2023-07-13T10:08:17;99436.91;;;40.49;24.97
11343;BME280;5726;42.160;24.746;2023-07-13T10:10:44;99420.88;;;40.35;23.97
11343;BME280;5726;42.160;24.746;2023-07-13T10:13:30;99426.44;;;40.50;24.76
11343;BME280;5726;42.160;24.746;2023-07-13T10:15:58;99422.53;;;40.62;24.00
11343;BME280;5726;42.160;24.746;2023-07-13T10:18:25;99420.75;;;40.44;24.48
11343;BME280;5726;42.160;24.746;2023-07-13T10:20:59;99421.53;;;40.65;24.05
11343;BME280;5726;42.160;24.746;2023-07-13T10:23:31;99418.91;;;40.41;23.81
11343;BME280;5726;42.160;24.746;2023-07-13T10:25:59;99423.63;;;40.89;24.02
11343;BME280;5726;42.160;24.746;2023-07-13T10:28:29;99419.06;;;40.72;23.83
11343;BME280;5726;42.160;24.746;2023-07-13T10:30:56;99412.88;;;40.88;21.99
11343;BME280;5726;42.160;24.746;2023-07-13T10:33:23;99410.06;;;40.88;23.16
11343;BME280;5726;42.160;24.746;2023-07-13T10:35:51;99412.47;;;40.95;22.74
11343;BME280;5726;42.160;24.746;2023-07-13T10:38:22;99399.94;;;40.76;22.13
11343;BME280;5726;42.160;24.746;2023-07-13T10:40:58;99392.06;;;40.60;23.55
11343;BME280;5726;42.160;24.746;2023-07-13T10:43:35;99395.19;;;40.62;23.37
11343;BME280;5726;42.160;24.746;2023-07-13T10:46:07;99390.66;;;40.50;22.82
11343;BME280;5726;42.160;24.746;2023-07-13T10:48:35;99393.97;;;40.49;23.66
11343;BME280;5726;42.160;24.746;2023-07-13T10:51:03;99388.63;;;40.71;23.51
11343;BME280;5726;42.160;24.746;2023-07-13T10:53:36;99379.38;;;40.90;23.63
11343;BME280;5726;42.160;24.746;2023-07-13T10:56:04;99382.84;;;40.99;23.62
11343;BME280;5726;42.160;24.746;2023-07-13T11:01:39;99367.75;;;40.77;23.68
11343;BME280;5726;42.160;24.746;2023-07-13T11:04:05;99367.34;;;40.89;23.11
11343;BME280;5726;42.160;24.746;2023-07-13T11:06:39;99358.31;;;40.60;23.15
11343;BME280;5726;42.160;24.746;2023-07-13T11:09:32;99358.16;;;40.49;22.55
11343;BME280;5726;42.160;24.746;2023-07-13T11:12:02;99345.94;;;40.52;21.41
11343;BME280;5726;42.160;24.746;2023-07-13T11:14:44;99359.56;;;40.20;23.02
11343;BME280;5726;42.160;24.746;2023-07-13T11:22:49;99352.28;;;40.47;22.02
11343;BME280;5726;42.160;24.746;2023-07-13T11:25:36;99357.81;;;40.42;22.25
11343;BME280;5726;42.160;24.746;2023-07-13T11:30:40;99353.25;;;40.64;22.60
11343;BME280;5726;42.160;24.746;2023-07-13T11:36:07;99340.53;;;40.49;21.61
11343;BME280;5726;42.160;24.746;2023-07-13T11:41:15;99344.56;;;40.62;22.45
11343;BME280;5726;42.160;24.746;2023-07-13T11:43:41;99341.03;;;40.92;21.48
11343;BME280;5726;42.160;24.746;2023-07-13T11:46:15;99331.78;;;40.86;21.88
11343;BME280;5726;42.160;24.746;2023-07-13T11:48:42;99341.84;;;40.73;21.55
11343;BME280;5726;42.160;24.746;2023-07-13T11:51:17;99329.69;;;40.62;21.98
11343;BME280;5726;42.160;24.746;2023-07-13T11:53:46;99335.78;;;41.00;21.21
11343;BME280;5726;42.160;24.746;2023-07-13T11:56:12;99323.78;;;41.05;21.18
11343;BME280;5726;42.160;24.746;2023-07-13T11:58:38;99329.56;;;41.21;21.01
11343;BME280;5726;42.160;24.746;2023-07-13T12:01:04;99324.81;;;41.32;21.28
11343;BME280;5726;42.160;24.746;2023-07-13T12:03:32;99323.03;;;41.60;19.78
11343;BME280;5726;42.160;24.746;2023-07-13T12:06:03;99311.50;;;41.64;20.06
11343;BME280;5726;42.160;24.746;2023-07-13T12:08:32;99311.44;;;41.89;20.92
11343;BME280;5726;42.160;24.746;2023-07-13T12:11:05;99296.38;;;41.61;20.17
11343;BME280;5726;42.160;24.746;2023-07-13T12:13:36;99306.81;;;41.86;21.07
11343;BME280;5726;42.160;24.746;2023-07-13T12:16:11;99293.53;;;41.92;19.81
11343;BME280;5726;42.160;24.746;2023-07-13T12:18:37;99297.69;;;41.66;20.52
11343;BME280;5726;42.160;24.746;2023-07-13T12:21:04;99290.91;;;41.47;20.59
11343;BME280;5726;42.160;24.746;2023-07-13T12:23:31;99283.72;;;41.82;20.41
11343;BME280;5726;42.160;24.746;2023-07-13T12:26:01;99285.69;;;42.12;19.95
11343;BME280;5726;42.160;24.746;2023-07-13T12:28:38;99277.25;;;42.12;20.04
11343;BME280;5726;42.160;24.746;2023-07-13T12:31:06;99281.66;;;42.24;20.03
11343;BME280;5726;42.160;24.746;2023-07-13T12:33:33;99277.09;;;42.37;19.92
11343;BME280;5726;42.160;24.746;2023-07-13T12:36:03;99284.56;;;42.40;20.15
11343;BME280;5726;42.160;24.746;2023-07-13T12:38:31;99280.16;;;42.34;19.95
11343;BME280;5726;42.160;24.746;2023-07-13T12:40:57;99280.44;;;42.41;19.44
11343;BME280;5726;42.160;24.746;2023-07-13T12:43:24;99268.97;;;42.67;19.60
11343;BME280;5726;42.160;24.746;2023-07-13T12:46:18;99267.06;;;42.26;20.27
11343;BME280;5726;42.160;24.746;2023-07-13T12:48:48;99264.47;;;42.17;20.03
11343;BME280;5726;42.160;24.746;2023-07-13T12:51:15;99259.53;;;42.06;20.20
11343;BME280;5726;42.160;24.746;2023-07-13T12:53:56;99255.13;;;42.00;20.33
11343;BME280;5726;42.160;24.746;2023-07-13T12:56:24;99254.31;;;41.88;20.50
11343;BME280;5726;42.160;24.746;2023-07-13T12:58:58;99245.69;;;42.08;20.07
11343;BME280;5726;42.160;24.746;2023-07-13T13:01:27;99247.00;;;42.13;20.19
11343;BME280;5726;42.160;24.746;2023-07-13T13:03:54;99246.78;;;42.22;20.33
11343;BME280;5726;42.160;24.746;2023-07-13T13:06:24;99244.72;;;42.22;21.16
11343;BME280;5726;42.160;24.746;2023-07-13T13:08:53;99241.69;;;42.31;20.39
11343;BME280;5726;42.160;24.746;2023-07-13T13:11:20;99236.59;;;42.40;19.53
11343;BME280;5726;42.160;24.746;2023-07-13T13:13:47;99231.34;;;42.06;19.76
11343;BME280;5726;42.160;24.746;2023-07-13T13:16:26;99244.00;;;42.32;20.38
11343;BME280;5726;42.160;24.746;2023-07-13T13:18:59;99237.03;;;42.17;20.92
11343;BME280;5726;42.160;24.746;2023-07-13T13:21:25;99235.38;;;41.94;21.82
11343;BME280;5726;42.160;24.746;2023-07-13T13:23:52;99241.00;;;41.89;22.35
11343;BME280;5726;42.160;24.746;2023-07-13T13:26:19;99238.69;;;41.87;22.00
11343;BME280;5726;42.160;24.746;2023-07-13T13:28:45;99220.78;;;41.49;22.36
11343;BME280;5726;42.160;24.746;2023-07-13T13:31:11;99212.38;;;41.54;22.10
11343;BME280;5726;42.160;24.746;2023-07-13T13:33:42;99213.81;;;41.44;22.48
11343;BME280;5726;42.160;24.746;2023-07-13T13:38:40;99214.13;;;41.16;22.23